Time;durP1;ratioP1;P1;durP2;ratioP2;P2;SDS_P1;SDS_P2;PMS_P1;PMS_P2;Temp;Humidity;BMP_temperature;BMP_pressure;BME280_temperature;BME280_humidity;BME280_pressure;Samples;Min_cycle;Max_cycle;Signal;HPM_P1;HPM_P2
2022/09/04 00:01:57;;;;;;;3.60;3.30;;;14.80;99.90;;;;;;5090518;28;20836;-52
2022/09/04 00:04:35;;;;;;;3.80;3.50;;;14.80;99.90;;;;;;5090723;28;20242;-52
2022/09/04 00:07:13;;;;;;;4.73;4.07;;;14.80;99.90;;;;;;5089904;28;20215;-52
2022/09/04 00:09:52;;;;;;;5.15;3.50;;;14.80;99.90;;;;;;5090137;28;20231;-52
2022/09/04 00:12:25;;;;;;;5.53;4.23;;;14.70;99.90;;;;;;5087427;28;20208;-52
2022/09/04 00:15:02;;;;;;;4.10;3.40;;;14.60;99.90;;;;;;5089957;28;20683;-52
2022/09/04 00:17:38;;;;;;;4.40;4.00;;;14.60;99.90;;;;;;5087336;28;20208;-52
2022/09/04 00:20:12;;;;;;;3.73;3.30;;;14.60;99.90;;;;;;5087545;28;20249;-52
2022/09/04 00:22:51;;;;;;;3.47;3.17;;;14.50;99.90;;;;;;5087086;28;20208;-52
2022/09/04 00:25:24;;;;;;;3.37;3.07;;;14.50;99.90;;;;;;5090270;28;20226;-55
2022/09/04 00:27:59;;;;;;;3.33;3.03;;;14.50;99.90;;;;;;5090164;28;20286;-52
2022/09/04 00:30:28;;;;;;;6.47;4.80;;;14.50;99.90;;;;;;5087728;28;20199;-52
2022/09/04 00:33:06;;;;;;;5.53;4.47;;;14.50;99.90;;;;;;5086459;28;20205;-52
2022/09/04 00:35:39;;;;;;;6.53;4.30;;;14.50;99.90;;;;;;5085858;28;20240;-52
2022/09/04 00:38:11;;;;;;;6.67;5.20;;;14.50;99.90;;;;;;5086576;28;20253;-52
2022/09/04 00:40:43;;;;;;;4.73;4.10;;;14.50;99.90;;;;;;5086085;28;20204;-52
2022/09/04 00:43:38;;;;;;;5.67;3.40;;;14.50;99.90;;;;;;5090036;28;20216;-52
2022/09/04 00:46:36;;;;;;;5.33;3.23;;;14.50;99.90;;;;;;5088097;28;20220;-52
2022/09/04 00:49:28;;;;;;;3.70;3.33;;;14.40;99.90;;;;;;5087349;28;20254;-52
2022/09/04 00:52:10;;;;;;;3.40;2.97;;;14.40;99.90;;;;;;5077620;28;20729;-52
2022/09/04 00:54:49;;;;;;;3.83;2.53;;;14.40;99.90;;;;;;5085605;28;20212;-53
2022/09/04 00:57:43;;;;;;;2.70;2.50;;;14.40;99.90;;;;;;5088359;28;20212;-52
2022/09/04 01:00:14;;;;;;;3.73;2.80;;;14.40;99.90;;;;;;5089368;28;20204;-52
2022/09/04 01:03:23;;;;;;;2.70;2.50;;;14.40;99.90;;;;;;5089406;28;20208;-51
2022/09/04 01:06:15;;;;;;;3.23;2.70;;;14.30;99.90;;;;;;5079532;28;21777;-52
2022/09/04 01:09:13;;;;;;;4.40;3.03;;;14.20;99.90;;;;;;5088160;28;20216;-52
2022/09/04 01:11:45;;;;;;;4.10;2.77;;;14.20;99.90;;;;;;5085039;28;20364;-52
2022/09/04 01:14:19;;;;;;;2.90;2.70;;;14.30;99.90;;;;;;5092618;28;20234;-52
2022/09/04 01:16:52;;;;;;;3.77;3.30;;;14.20;99.90;;;;;;5087889;28;20232;-52
2022/09/04 01:19:45;;;;;;;2.80;2.60;;;14.20;99.90;;;;;;5088858;28;20226;-52
2022/09/04 01:22:40;;;;;;;3.30;2.90;;;14.10;99.90;;;;;;5087272;28;20742;-52
2022/09/04 01:25:30;;;;;;;2.97;2.77;;;14.10;99.90;;;;;;5091653;28;20272;-52
2022/09/04 01:28:05;;;;;;;2.97;2.77;;;14.10;99.90;;;;;;5087609;28;20640;-52
2022/09/04 01:30:53;;;;;;;3.77;3.07;;;14.10;99.90;;;;;;5088270;28;20212;-52
2022/09/04 01:33:30;;;;;;;3.87;2.83;;;14.10;99.90;;;;;;5089406;28;20261;-52
2022/09/04 01:36:05;;;;;;;3.77;2.80;;;14.00;99.90;;;;;;5085813;28;20231;-52
2022/09/04 01:38:40;;;;;;;3.13;2.60;;;14.00;99.90;;;;;;5094706;28;20212;-52
2022/09/04 01:41:15;;;;;;;3.33;3.03;;;14.00;99.90;;;;;;5090430;28;20636;-52
2022/09/04 01:43:44;;;;;;;3.03;2.80;;;14.00;99.90;;;;;;5089014;28;20253;-52
2022/09/04 01:46:32;;;;;;;4.33;3.20;;;14.00;99.90;;;;;;5084649;28;20220;-52
2022/09/04 01:49:07;;;;;;;3.30;3.00;;;14.00;99.90;;;;;;5089583;28;20245;-52
2022/09/04 01:51:40;;;;;;;2.90;2.70;;;14.00;99.90;;;;;;5092882;28;20200;-51
2022/09/04 01:54:31;;;;;;;3.63;2.77;;;13.90;99.90;;;;;;5089805;28;20216;-52
2022/09/04 01:57:15;;;;;;;3.30;3.00;;;13.90;99.90;;;;;;5091197;28;20236;-52
2022/09/04 01:59:58;;;;;;;3.13;2.80;;;13.80;99.90;;;;;;5088812;28;20204;-52
2022/09/04 02:02:33;;;;;;;4.07;3.03;;;13.80;99.90;;;;;;5089762;28;20204;-52
2022/09/04 02:05:09;;;;;;;3.20;2.90;;;13.70;99.90;;;;;;5090827;28;20247;-52
2022/09/04 02:07:45;;;;;;;3.50;3.10;;;13.70;99.90;;;;;;5088924;28;20212;-52
2022/09/04 02:10:22;;;;;;;3.70;3.13;;;13.60;99.90;;;;;;5086323;28;20200;-52
2022/09/04 02:13:02;;;;;;;3.20;2.90;;;13.70;99.90;;;;;;5093158;28;20257;-52
2022/09/04 02:15:41;;;;;;;3.40;3.00;;;13.70;99.90;;;;;;5090560;28;20667;-53
2022/09/04 02:18:18;;;;;;;2.80;2.60;;;13.70;99.90;;;;;;5090892;28;20253;-52
2022/09/04 02:20:55;;;;;;;3.23;2.93;;;13.70;99.90;;;;;;5088796;28;20210;-52
2022/09/04 02:23:34;;;;;;;3.23;3.00;;;13.70;99.90;;;;;;5087900;28;20741;-52
2022/09/04 02:26:10;;;;;;;3.37;3.07;;;13.70;99.90;;;;;;5086011;28;20224;-52
2022/09/04 02:28:47;;;;;;;3.67;3.30;;;13.60;99.90;;;;;;5088237;28;20231;-52
2022/09/04 02:31:28;;;;;;;3.30;2.93;;;13.60;99.90;;;;;;5091165;28;20255;-52
2022/09/04 02:34:04;;;;;;;3.57;3.27;;;13.60;99.90;;;;;;5093704;28;20204;-52
2022/09/04 02:36:39;;;;;;;3.43;3.13;;;13.60;99.90;;;;;;5095331;28;20224;-52
2022/09/04 02:39:17;;;;;;;3.50;3.20;;;13.60;99.90;;;;;;5092383;28;20565;-51
2022/09/04 02:41:57;;;;;;;3.30;3.00;;;13.60;99.90;;;;;;5096568;28;21021;-52
2022/09/04 02:44:37;;;;;;;3.70;3.40;;;13.50;99.90;;;;;;5092885;28;20207;-52
2022/09/04 02:47:17;;;;;;;4.93;3.17;;;13.50;99.90;;;;;;5097699;28;21006;-51
2022/09/04 02:49:56;;;;;;;3.40;3.10;;;13.50;99.90;;;;;;5088960;28;20258;-52
2022/09/04 02:52:48;;;;;;;3.60;3.30;;;13.50;99.90;;;;;;5091985;28;20204;-52
2022/09/04 02:55:26;;;;;;;4.50;3.20;;;13.50;99.90;;;;;;5092134;28;20228;-52
2022/09/04 02:58:08;;;;;;;3.87;3.50;;;13.50;99.90;;;;;;5094955;28;20196;-52
2022/09/04 03:00:42;;;;;;;3.80;3.33;;;13.40;99.90;;;;;;5093651;28;20200;-52
2022/09/04 03:03:18;;;;;;;4.07;3.33;;;13.50;99.90;;;;;;5092041;28;20209;-52
2022/09/04 03:05:52;;;;;;;4.93;3.10;;;13.40;99.90;;;;;;5094363;28;20850;-52
2022/09/04 03:08:25;;;;;;;5.33;2.77;;;13.40;99.90;;;;;;5091863;28;20211;-52
2022/09/04 03:10:57;;;;;;;3.57;3.30;;;13.40;99.90;;;;;;5091988;28;20227;-52
2022/09/04 03:13:30;;;;;;;3.97;3.10;;;13.30;99.90;;;;;;5091907;28;20968;-52
2022/09/04 03:16:07;;;;;;;4.10;3.30;;;13.40;99.90;;;;;;5098069;28;20587;-52
2022/09/04 03:18:53;;;;;;;3.10;2.90;;;13.30;99.90;;;;;;5090033;28;20212;-52
2022/09/04 03:21:27;;;;;;;3.77;3.07;;;13.30;99.90;;;;;;5088579;28;20207;-52
2022/09/04 03:24:00;;;;;;;3.40;3.10;;;13.20;99.90;;;;;;5089188;28;20208;-52
2022/09/04 03:26:34;;;;;;;4.77;3.33;;;13.20;99.90;;;;;;5087513;28;20220;-52
2022/09/04 03:29:08;;;;;;;4.20;3.30;;;13.20;99.90;;;;;;5089280;28;20200;-52
2022/09/04 03:31:45;;;;;;;3.63;3.27;;;13.20;99.90;;;;;;5088581;28;20204;-52
2022/09/04 03:34:32;;;;;;;4.63;3.33;;;13.20;99.90;;;;;;5089366;28;20295;-52
2022/09/04 03:37:24;;;;;;;3.50;3.20;;;13.20;99.90;;;;;;5089417;28;20232;-53
2022/09/04 03:40:06;;;;;;;3.60;3.30;;;13.20;99.90;;;;;;5087288;28;20204;-52
2022/09/04 03:42:50;;;;;;;3.17;2.97;;;13.20;99.90;;;;;;5087187;28;20880;-52
2022/09/04 03:45:29;;;;;;;3.43;3.13;;;13.20;99.90;;;;;;5091187;28;20224;-52
2022/09/04 03:48:16;;;;;;;3.37;3.07;;;13.10;99.90;;;;;;5092928;28;20200;-52
2022/09/04 03:50:55;;;;;;;4.50;3.60;;;13.00;99.90;;;;;;5087786;28;20208;-52
2022/09/04 03:53:33;;;;;;;3.67;3.07;;;13.00;99.90;;;;;;5091028;28;20204;-52
2022/09/04 03:56:31;;;;;;;3.30;3.00;;;13.00;99.90;;;;;;5087891;28;20220;-52
2022/09/04 03:59:04;;;;;;;3.43;3.13;;;13.00;99.90;;;;;;5089681;28;20204;-52
2022/09/04 04:01:45;;;;;;;3.57;3.27;;;13.00;99.90;;;;;;5090936;28;20204;-52
2022/09/04 04:04:41;;;;;;;3.70;3.10;;;13.00;99.90;;;;;;5087934;28;20203;-52
2022/09/04 04:07:21;;;;;;;5.13;3.70;;;12.90;99.90;;;;;;5090515;28;20249;-51
2022/09/04 04:10:00;;;;;;;3.70;3.40;;;13.00;99.90;;;;;;5088228;28;20205;-52
2022/09/04 04:12:42;;;;;;;3.73;3.43;;;13.00;99.90;;;;;;5088076;28;20208;-51
2022/09/04 04:15:24;;;;;;;3.90;3.47;;;13.00;99.90;;;;;;5089518;28;20231;-52
2022/09/04 04:18:06;;;;;;;3.17;2.87;;;13.00;99.90;;;;;;5091082;28;20216;-52
2022/09/04 04:20:44;;;;;;;5.33;3.57;;;12.90;99.90;;;;;;5093591;28;20212;-52
2022/09/04 04:23:35;;;;;;;3.70;3.30;;;12.90;99.90;;;;;;5092558;28;20207;-51
2022/09/04 04:26:09;;;;;;;3.87;3.50;;;12.90;99.90;;;;;;5090313;28;20285;-52
2022/09/04 04:29:01;;;;;;;4.10;3.70;;;12.90;99.90;;;;;;5091626;28;20673;-52
2022/09/04 04:31:43;;;;;;;3.37;3.00;;;12.80;99.90;;;;;;5088946;28;20204;-52
2022/09/04 04:34:21;;;;;;;3.03;2.83;;;12.80;99.90;;;;;;5089466;28;20245;-51
2022/09/04 04:36:55;;;;;;;3.40;3.10;;;12.80;99.90;;;;;;5094284;28;20219;-52
2022/09/04 04:39:34;;;;;;;3.60;3.30;;;12.80;99.90;;;;;;5092689;28;20233;-53
2022/09/04 04:42:16;;;;;;;4.80;4.30;;;12.80;99.90;;;;;;5094805;28;20207;-51
2022/09/04 04:48:18;;;;;;;4.83;2.93;;;12.80;99.90;;;;;;5089658;28;20196;-51
2022/09/04 04:50:53;;;;;;;3.33;3.03;;;12.80;99.90;;;;;;5057687;28;20204;-52
2022/09/04 04:53:30;;;;;;;4.00;3.70;;;12.80;99.90;;;;;;5090394;28;20207;-52
2022/09/04 04:56:06;;;;;;;3.60;3.30;;;12.80;99.90;;;;;;5092534;28;20241;-52
2022/09/04 04:58:47;;;;;;;3.60;3.30;;;12.90;99.90;;;;;;5091812;28;20259;-53
2022/09/04 05:01:28;;;;;;;4.00;3.20;;;12.80;99.90;;;;;;5092975;28;20200;-52
2022/09/04 05:04:09;;;;;;;3.90;3.50;;;12.80;99.90;;;;;;5088294;28;20283;-52
2022/09/04 05:06:45;;;;;;;3.27;3.03;;;12.90;99.90;;;;;;5087230;28;20220;-52
2022/09/04 05:09:22;;;;;;;4.23;3.37;;;12.90;99.90;;;;;;5087053;28;20200;-52
2022/09/04 05:11:59;;;;;;;3.33;2.93;;;13.00;99.90;;;;;;5075582;28;20262;-52
2022/09/04 05:14:39;;;;;;;3.53;3.23;;;13.00;99.90;;;;;;5076355;28;20217;-51
2022/09/04 05:17:19;;;;;;;3.53;3.23;;;13.00;99.90;;;;;;5080851;28;20274;-51
2022/09/04 05:19:54;;;;;;;4.60;3.50;;;13.10;99.90;;;;;;5073055;28;20205;-52
2022/09/04 05:22:31;;;;;;;3.90;3.50;;;13.10;99.90;;;;;;5074105;28;20341;-52
2022/09/04 05:25:09;;;;;;;3.13;2.83;;;13.20;99.90;;;;;;5077080;28;20225;-52
2022/09/04 05:27:51;;;;;;;4.27;3.53;;;13.30;99.90;;;;;;5075808;28;20285;-52
2022/09/04 05:30:27;;;;;;;3.40;3.13;;;13.40;99.90;;;;;;5075129;28;20255;-52
2022/09/04 05:33:03;;;;;;;4.70;3.47;;;13.50;99.90;;;;;;5079673;28;20196;-52
2022/09/04 05:35:42;;;;;;;3.53;3.10;;;13.60;99.90;;;;;;5074907;28;20259;-51
2022/09/04 05:38:17;;;;;;;3.40;3.00;;;13.60;99.90;;;;;;5074834;28;20711;-52
2022/09/04 05:41:06;;;;;;;8.67;3.77;;;13.60;99.90;;;;;;5078593;28;20207;-52
2022/09/04 05:43:49;;;;;;;8.13;4.30;;;13.70;99.90;;;;;;5088685;28;20709;-52
2022/09/04 05:46:29;;;;;;;6.60;4.17;;;13.80;99.90;;;;;;5086171;28;20305;-51
2022/09/04 05:49:03;;;;;;;8.23;3.73;;;13.90;99.90;;;;;;5084727;28;20683;-51
2022/09/04 05:51:55;;;;;;;5.00;3.40;;;14.20;99.90;;;;;;5084924;28;20200;-51
2022/09/04 05:54:56;;;;;;;6.80;3.50;;;14.20;99.90;;;;;;5087455;28;20657;-53
2022/09/04 05:57:39;;;;;;;4.10;3.70;;;14.30;99.90;;;;;;5086051;28;20219;-52
2022/09/04 06:00:13;;;;;;;4.57;3.77;;;14.30;99.90;;;;;;5088557;28;20200;-52
2022/09/04 06:03:08;;;;;;;4.17;3.80;;;14.30;99.90;;;;;;5088405;28;20569;-52
2022/09/04 06:05:44;;;;;;;4.60;3.93;;;14.40;99.90;;;;;;5090614;28;20227;-52
2022/09/04 06:08:32;;;;;;;4.37;3.97;;;14.50;99.90;;;;;;5090955;28;20196;-52
2022/09/04 06:11:24;;;;;;;4.60;4.20;;;14.50;99.90;;;;;;5092131;28;20208;-51
2022/09/04 06:14:18;;;;;;;4.90;4.50;;;14.60;99.90;;;;;;5090686;28;20258;-51
2022/09/04 06:17:01;;;;;;;4.53;4.13;;;14.60;99.90;;;;;;5094452;28;20265;-52
2022/09/04 06:19:47;;;;;;;4.50;3.53;;;14.70;99.90;;;;;;5089386;28;20858;-52
2022/09/04 06:22:36;;;;;;;3.60;3.30;;;14.80;99.90;;;;;;5092268;28;20234;-52
2022/09/04 06:25:52;;;;;;;3.30;3.00;;;14.90;99.90;;;;;;5092124;28;20227;-52
2022/09/04 06:28:44;;;;;;;5.20;3.10;;;15.10;99.90;;;;;;5090864;28;20279;-52
2022/09/04 06:31:39;;;;;;;4.53;3.70;;;15.30;99.90;;;;;;5090366;28;20208;-52
2022/09/04 06:34:19;;;;;;;4.28;3.88;;;15.40;99.90;;;;;;5090952;28;20204;-52
2022/09/04 06:37:01;;;;;;;4.80;4.30;;;15.60;99.90;;;;;;5090710;28;20227;-52
2022/09/04 06:39:56;;;;;;;8.48;5.03;;;15.70;99.90;;;;;;5092762;28;20224;-51
2022/09/04 06:42:37;;;;;;;5.32;4.55;;;15.80;99.90;;;;;;5091993;28;20228;-52
2022/09/04 06:45:22;;;;;;;7.40;5.50;;;15.90;99.90;;;;;;5088847;28;20223;-52
2022/09/04 06:48:03;;;;;;;9.13;6.60;;;16.00;99.90;;;;;;5089117;28;20301;-52
2022/09/04 06:50:42;;;;;;;11.10;9.07;;;16.10;99.90;;;;;;5092199;28;20234;-52
2022/09/04 06:53:20;;;;;;;8.15;7.15;;;16.20;99.90;;;;;;5091927;28;20742;-51
2022/09/04 06:56:03;;;;;;;10.82;8.00;;;16.30;99.90;;;;;;5091143;28;20220;-52
2022/09/04 06:58:53;;;;;;;12.20;9.07;;;16.40;99.90;;;;;;5090776;28;20244;-52
2022/09/04 07:01:39;;;;;;;13.35;9.73;;;16.50;99.90;;;;;;5090445;28;20665;-53
2022/09/04 07:04:20;;;;;;;15.30;11.40;;;16.60;99.90;;;;;;5091385;28;20204;-52
2022/09/04 07:06:58;;;;;;;14.68;10.90;;;16.70;99.90;;;;;;5088081;28;20228;-52
2022/09/04 07:09:31;;;;;;;16.23;10.88;;;16.80;99.90;;;;;;5091171;28;20196;-52
2022/09/04 07:12:24;;;;;;;14.02;10.73;;;17.00;99.90;;;;;;5083264;28;20200;-52
2022/09/04 07:15:29;;;;;;;16.27;11.40;;;17.10;99.90;;;;;;5090114;28;20216;-53
2022/09/04 07:18:09;;;;;;;18.08;13.57;;;17.20;99.90;;;;;;5077031;28;20219;-51
2022/09/04 07:20:45;;;;;;;16.98;12.32;;;17.20;99.90;;;;;;5091332;28;20285;-52
2022/09/04 07:23:34;;;;;;;21.10;14.43;;;17.20;99.90;;;;;;5091067;28;20212;-52
2022/09/04 07:26:16;;;;;;;21.90;14.95;;;17.30;99.90;;;;;;5082375;28;20220;-52
2022/09/04 07:29:02;;;;;;;32.45;18.00;;;17.40;99.90;;;;;;5082437;28;20286;-51
2022/09/04 07:31:36;;;;;;;32.17;18.45;;;17.40;99.90;;;;;;5079485;28;20205;-54
2022/09/04 07:34:13;;;;;;;34.47;21.05;;;17.50;99.90;;;;;;5079776;28;20212;-52
2022/09/04 07:36:48;;;;;;;49.38;26.83;;;17.50;99.90;;;;;;5090369;28;20228;-51
2022/09/04 07:39:25;;;;;;;53.95;28.15;;;17.50;99.90;;;;;;5091459;28;20280;-52
2022/09/04 07:42:00;;;;;;;57.20;29.73;;;17.50;99.90;;;;;;5084290;28;20290;-52
2022/09/04 07:44:37;;;;;;;52.33;27.23;;;17.60;99.90;;;;;;5088521;28;20285;-52
2022/09/04 07:47:13;;;;;;;47.15;25.90;;;17.60;99.90;;;;;;5095356;28;20204;-52
2022/09/04 07:49:59;;;;;;;45.83;25.95;;;17.70;99.90;;;;;;5084597;28;20249;-52
2022/09/04 07:52:44;;;;;;;41.88;22.88;;;17.80;99.90;;;;;;5088115;28;20546;-52
2022/09/04 07:55:23;;;;;;;43.50;23.98;;;17.80;99.90;;;;;;5089185;28;20269;-52
2022/09/04 07:58:19;;;;;;;49.97;27.13;;;17.80;99.90;;;;;;5064770;28;20746;-52
2022/09/04 08:01:03;;;;;;;43.15;23.90;;;17.90;99.90;;;;;;5065399;28;20236;-52
2022/09/04 08:03:48;;;;;;;40.90;24.25;;;18.00;99.90;;;;;;5064471;28;20206;-53
2022/09/04 08:06:29;;;;;;;54.58;26.58;;;18.00;99.90;;;;;;5061202;28;20232;-53
2022/09/04 08:09:11;;;;;;;47.28;26.63;;;18.10;99.90;;;;;;5060730;28;20204;-52
2022/09/04 08:11:58;;;;;;;44.85;25.13;;;18.20;99.90;;;;;;5078417;28;20257;-51
2022/09/04 08:14:54;;;;;;;46.58;24.73;;;18.30;99.90;;;;;;5079105;28;20211;-51
2022/09/04 08:17:43;;;;;;;41.60;23.30;;;18.40;99.90;;;;;;5089968;28;20243;-52
2022/09/04 08:20:21;;;;;;;42.20;24.27;;;18.50;99.90;;;;;;5079933;28;20289;-52
2022/09/04 08:23:03;;;;;;;48.70;25.00;;;18.70;99.90;;;;;;5088445;28;20220;-55
2022/09/04 08:25:50;;;;;;;44.72;22.92;;;18.80;99.90;;;;;;5089268;28;20305;-52
2022/09/04 08:28:32;;;;;;;37.30;21.75;;;18.90;99.90;;;;;;5087988;28;20200;-52
2022/09/04 08:31:07;;;;;;;36.30;21.17;;;19.10;99.90;;;;;;5090709;28;20208;-52
2022/09/04 08:34:00;;;;;;;35.45;20.38;;;19.30;99.90;;;;;;5086135;28;20208;-52
2022/09/04 08:36:37;;;;;;;34.13;20.27;;;19.30;99.90;;;;;;5089856;28;20224;-52
2022/09/04 08:39:09;;;;;;;33.33;19.65;;;19.40;99.90;;;;;;5086456;28;20284;-52
2022/09/04 08:42:07;;;;;;;32.13;19.02;;;19.50;99.90;;;;;;5088617;28;20201;-52
2022/09/04 08:45:02;;;;;;;31.98;19.35;;;19.50;99.90;;;;;;5085567;28;20261;-52
2022/09/04 08:48:08;;;;;;;32.90;18.17;;;19.50;99.90;;;;;;5088902;28;20200;-52
2022/09/04 08:51:09;;;;;;;26.70;16.98;;;19.80;99.90;;;;;;5058460;28;20675;-52
2022/09/04 08:54:13;;;;;;;26.20;16.23;;;19.80;99.90;;;;;;5084478;28;20250;-53
2022/09/04 08:56:49;;;;;;;28.17;17.55;;;19.90;99.90;;;;;;5082558;28;20281;-51
2022/09/04 08:59:43;;;;;;;24.60;15.60;;;20.00;99.90;;;;;;5089405;28;20219;-52
2022/09/04 09:02:50;;;;;;;26.02;16.33;;;20.10;99.90;;;;;;5089543;28;20204;-52
2022/09/04 09:06:00;;;;;;;20.88;13.63;;;20.40;99.90;;;;;;5088213;28;21066;-52
2022/09/04 09:09:24;;;;;;;13.93;10.90;;;20.50;99.90;;;;;;5059286;28;20208;-52
2022/09/04 09:12:37;;;;;;;23.42;12.75;;;20.70;99.90;;;;;;5086816;28;20967;-52
2022/09/04 09:15:56;;;;;;;17.50;13.13;;;21.00;99.90;;;;;;5051230;28;20240;-52
2022/09/04 09:18:35;;;;;;;23.75;14.43;;;21.20;99.90;;;;;;5087795;28;20253;-52
2022/09/04 09:21:11;;;;;;;18.92;13.77;;;21.10;99.90;;;;;;5093277;28;20200;-52
2022/09/04 09:23:57;;;;;;;16.83;11.35;;;21.10;99.90;;;;;;5089229;28;20738;-52
2022/09/04 09:26:28;;;;;;;12.25;9.73;;;21.20;99.90;;;;;;5093726;28;20220;-52
2022/09/04 09:29:32;;;;;;;12.82;9.75;;;21.20;99.90;;;;;;5089057;28;20208;-52
2022/09/04 09:32:31;;;;;;;14.02;10.75;;;21.20;99.90;;;;;;5063153;28;20212;-52
2022/09/04 09:35:31;;;;;;;12.93;10.05;;;21.20;99.90;;;;;;5093018;28;20223;-52
2022/09/04 09:38:34;;;;;;;12.45;9.48;;;21.40;99.90;;;;;;5084959;28;20208;-51
2022/09/04 09:41:38;;;;;;;11.38;8.88;;;21.40;99.90;;;;;;5087404;28;20669;-52
2022/09/04 09:44:36;;;;;;;15.30;10.55;;;21.40;99.90;;;;;;5088618;28;20765;-52
2022/09/04 09:47:36;;;;;;;10.88;8.95;;;21.40;99.90;;;;;;5081698;28;20317;-52
2022/09/04 09:50:25;;;;;;;10.88;9.02;;;21.50;99.90;;;;;;5088548;28;20249;-52
2022/09/04 09:53:36;;;;;;;9.55;7.97;;;21.50;99.90;;;;;;5091344;28;20665;-52
2022/09/04 09:56:41;;;;;;;12.23;8.60;;;21.60;99.90;;;;;;5089274;28;20228;-51
2022/09/04 09:59:51;;;;;;;11.65;8.95;;;21.70;99.90;;;;;;5088733;28;20224;-52
2022/09/04 10:02:47;;;;;;;10.35;7.38;;;21.80;99.90;;;;;;5087521;28;20274;-52
2022/09/04 10:05:50;;;;;;;11.15;8.25;;;21.90;99.90;;;;;;5089510;28;20277;-51
2022/09/04 10:08:46;;;;;;;9.27;8.13;;;22.00;99.90;;;;;;5088908;28;20200;-52
2022/09/04 10:11:35;;;;;;;10.38;7.13;;;22.10;99.90;;;;;;5087712;28;20204;-52
2022/09/04 10:14:41;;;;;;;8.68;6.88;;;22.20;99.90;;;;;;5091052;28;20207;-52
2022/09/04 10:17:45;;;;;;;7.97;6.97;;;22.20;99.90;;;;;;5091024;28;20203;-52
2022/09/04 10:20:46;;;;;;;9.45;6.95;;;22.30;99.90;;;;;;5087652;28;20224;-52
2022/09/04 10:23:36;;;;;;;8.75;6.30;;;22.30;99.90;;;;;;5092922;28;20245;-52
2022/09/04 10:26:38;;;;;;;6.07;5.43;;;22.40;99.90;;;;;;5086407;28;20246;-53
2022/09/04 10:29:28;;;;;;;7.57;6.05;;;22.40;99.90;;;;;;5087461;28;20200;-53
2022/09/04 10:32:08;;;;;;;5.70;4.90;;;22.60;99.90;;;;;;5090615;28;20200;-52
2022/09/04 10:34:54;;;;;;;6.68;5.70;;;22.70;99.90;;;;;;5084996;28;20261;-52
2022/09/04 10:37:40;;;;;;;6.22;5.47;;;22.70;99.90;;;;;;5085503;28;20212;-52
2022/09/04 10:40:34;;;;;;;10.38;7.15;;;22.70;99.90;;;;;;5086702;28;20696;-53
2022/09/04 10:43:36;;;;;;;7.70;6.22;;;22.70;99.90;;;;;;5086609;28;20225;-53
2022/09/04 10:46:11;;;;;;;9.45;6.78;;;22.70;99.90;;;;;;5085439;28;20277;-52
2022/09/04 10:49:19;;;;;;;7.40;5.30;;;22.90;99.90;;;;;;5082098;28;20258;-52
2022/09/04 10:52:30;;;;;;;8.60;5.90;;;22.90;99.90;;;;;;5089252;28;20213;-52
2022/09/04 10:55:31;;;;;;;4.78;3.45;;;22.90;99.90;;;;;;5087935;28;20211;-52
2022/09/04 10:58:17;;;;;;;4.30;3.65;;;23.00;99.90;;;;;;5089665;28;20661;-52
2022/09/04 11:01:05;;;;;;;3.72;3.40;;;22.90;99.90;;;;;;5089431;28;20281;-52
2022/09/04 11:03:52;;;;;;;3.47;3.17;;;22.90;99.90;;;;;;5091700;28;20200;-52
2022/09/04 11:06:59;;;;;;;3.13;2.80;;;22.90;99.90;;;;;;5087274;28;20288;-52
2022/09/04 11:09:50;;;;;;;6.65;4.35;;;23.00;99.90;;;;;;5089819;28;20273;-53
2022/09/04 11:12:52;;;;;;;5.45;4.78;;;23.00;99.90;;;;;;5091262;28;20285;-52
2022/09/04 11:15:55;;;;;;;5.18;4.53;;;23.10;99.90;;;;;;5087346;28;20243;-53
2022/09/04 11:19:02;;;;;;;5.18;4.63;;;23.10;99.90;;;;;;5089554;28;20204;-53
2022/09/04 11:22:13;;;;;;;4.85;4.10;;;23.10;99.90;;;;;;5095495;28;20752;-53
2022/09/04 11:25:17;;;;;;;6.30;4.47;;;23.20;99.90;;;;;;5093433;28;20220;-53
2022/09/04 11:28:15;;;;;;;5.00;4.30;;;23.40;99.90;;;;;;5095514;28;20199;-53
2022/09/04 11:31:07;;;;;;;6.38;4.22;;;23.40;99.90;;;;;;5080948;28;20208;-53
2022/09/04 11:34:14;;;;;;;5.25;4.68;;;23.40;99.90;;;;;;5089866;28;20216;-53
2022/09/04 11:37:35;;;;;;;5.28;4.70;;;23.40;99.90;;;;;;5091167;28;20476;-51
2022/09/04 11:40:48;;;;;;;5.30;4.55;;;23.50;99.90;;;;;;5000336;28;20271;-53
2022/09/04 11:43:49;;;;;;;5.45;4.95;;;23.50;99.90;;;;;;4921270;29;20297;-52
2022/09/04 11:46:46;;;;;;;6.05;4.50;;;23.50;99.90;;;;;;4997066;28;20257;-51
2022/09/04 11:49:50;;;;;;;7.18;5.03;;;23.60;99.90;;;;;;5085248;28;20239;-53
2022/09/04 11:52:33;;;;;;;5.60;4.95;;;23.70;99.90;;;;;;5105400;28;20207;-53
2022/09/04 11:55:34;;;;;;;5.53;4.88;;;23.70;99.90;;;;;;5086565;28;20231;-53
2022/09/04 11:58:36;;;;;;;6.05;4.80;;;23.80;99.90;;;;;;5090416;28;20208;-52
2022/09/04 12:01:22;;;;;;;5.18;4.55;;;23.80;99.90;;;;;;5093025;28;20226;-53
2022/09/04 12:04:24;;;;;;;5.40;4.90;;;23.70;99.90;;;;;;5089348;28;20204;-52
2022/09/04 12:07:12;;;;;;;6.15;4.72;;;23.80;99.90;;;;;;5081516;28;20289;-52
2022/09/04 12:10:00;;;;;;;5.93;4.82;;;23.80;99.90;;;;;;5086349;28;20208;-53
2022/09/04 12:12:59;;;;;;;5.40;4.90;;;23.90;99.90;;;;;;5074313;28;20689;-53
2022/09/04 12:16:13;;;;;;;4.82;4.40;;;23.90;99.90;;;;;;5080444;28;20250;-53
2022/09/04 12:18:57;;;;;;;6.03;4.38;;;24.10;99.90;;;;;;5087878;28;20235;-52
2022/09/04 12:22:07;;;;;;;5.43;4.18;;;24.20;99.90;;;;;;5096192;28;20216;-53
2022/09/04 12:25:17;;;;;;;6.35;4.38;;;24.20;99.90;;;;;;5110065;28;20221;-51
2022/09/04 12:28:37;;;;;;;6.43;4.72;;;24.20;99.90;;;;;;5097510;28;20200;-52
2022/09/04 12:31:35;;;;;;;6.90;4.63;;;24.20;99.90;;;;;;5110489;28;20288;-53
2022/09/04 12:34:31;;;;;;;5.40;4.20;;;24.30;99.90;;;;;;5092680;28;20684;-51
2022/09/04 12:37:29;;;;;;;4.32;3.70;;;24.30;99.90;;;;;;5094511;28;20227;-53
2022/09/04 12:40:28;;;;;;;4.88;3.95;;;24.30;99.90;;;;;;5061271;28;20213;-53
2022/09/04 12:43:07;;;;;;;5.20;4.22;;;24.40;99.90;;;;;;5088117;28;20738;-53
2022/09/04 12:45:45;;;;;;;5.25;4.32;;;24.40;99.90;;;;;;5088448;28;20235;-52
2022/09/04 12:48:22;;;;;;;5.50;4.40;;;24.40;99.90;;;;;;5076976;28;20323;-52
2022/09/04 12:50:59;;;;;;;5.35;4.35;;;24.50;99.90;;;;;;5072954;28;20201;-52
2022/09/04 12:53:56;;;;;;;5.72;4.78;;;24.50;99.90;;;;;;5088016;28;20204;-52
2022/09/04 12:56:41;;;;;;;4.57;3.78;;;24.40;99.90;;;;;;5081652;28;20614;-53
2022/09/04 12:59:25;;;;;;;5.25;3.97;;;24.50;99.90;;;;;;5085211;28;20200;-52
2022/09/04 13:02:03;;;;;;;4.38;3.85;;;24.50;99.90;;;;;;5086161;28;20693;-52
2022/09/04 13:04:45;;;;;;;4.25;3.55;;;24.50;99.90;;;;;;5087255;28;20212;-53
2022/09/04 13:07:33;;;;;;;4.03;3.63;;;24.50;99.90;;;;;;5087006;28;20714;-53
2022/09/04 13:10:16;;;;;;;6.47;3.95;;;24.60;99.90;;;;;;5087111;28;20208;-53
2022/09/04 13:12:55;;;;;;;4.78;3.40;;;24.60;99.90;;;;;;5086536;28;20999;-52
2022/09/04 13:15:35;;;;;;;4.78;3.80;;;24.60;99.90;;;;;;5086872;28;20231;-52
2022/09/04 13:18:14;;;;;;;4.20;3.35;;;24.70;99.90;;;;;;5092918;28;20195;-51
2022/09/04 13:20:49;;;;;;;3.92;3.53;;;24.80;99.90;;;;;;5086980;28;20196;-53
2022/09/04 13:23:40;;;;;;;3.78;3.28;;;24.90;99.90;;;;;;5090108;28;20199;-52
2022/09/04 13:26:30;;;;;;;3.58;3.28;;;24.90;99.90;;;;;;5084685;28;20304;-52
2022/09/04 13:29:15;;;;;;;4.60;3.22;;;24.90;99.90;;;;;;5087645;28;20622;-52
2022/09/04 13:32:04;;;;;;;5.07;3.42;;;24.90;99.90;;;;;;5088014;28;20287;-53
2022/09/04 13:34:47;;;;;;;4.10;3.58;;;24.90;99.90;;;;;;5088154;28;20212;-52
2022/09/04 13:37:22;;;;;;;3.88;3.22;;;24.90;99.90;;;;;;5086501;28;20623;-51
2022/09/04 13:40:23;;;;;;;5.35;3.40;;;24.80;99.90;;;;;;5093211;28;20207;-52
2022/09/04 13:43:16;;;;;;;4.03;3.53;;;24.80;99.90;;;;;;5071932;28;20232;-51
2022/09/04 13:45:50;;;;;;;3.67;3.38;;;24.90;99.90;;;;;;5094361;28;20232;-51
2022/09/04 13:48:36;;;;;;;3.72;3.35;;;24.90;99.90;;;;;;5087402;28;20199;-53
2022/09/04 13:51:10;;;;;;;4.38;3.40;;;24.90;99.90;;;;;;5085173;28;20208;-52
2022/09/04 13:53:54;;;;;;;4.30;3.40;;;24.80;99.90;;;;;;5087946;28;20216;-53
2022/09/04 13:56:28;;;;;;;4.10;3.70;;;24.80;99.90;;;;;;5087928;28;20227;-53
2022/09/04 13:59:00;;;;;;;3.55;3.25;;;25.00;99.90;;;;;;5087900;28;20204;-53
2022/09/04 14:01:34;;;;;;;4.95;3.47;;;25.10;99.90;;;;;;5087814;28;20232;-53
2022/09/04 14:04:07;;;;;;;4.72;3.33;;;25.20;99.90;;;;;;5088025;28;20285;-52
2022/09/04 14:06:36;;;;;;;4.25;3.70;;;25.30;99.90;;;;;;5088302;28;20219;-53
2022/09/04 14:09:06;;;;;;;4.55;3.67;;;25.40;99.90;;;;;;5088001;28;20212;-52
2022/09/04 14:11:58;;;;;;;4.28;3.40;;;25.50;99.90;;;;;;5087327;28;20586;-52
2022/09/04 14:14:47;;;;;;;4.60;3.20;;;25.70;99.90;;;;;;5087815;28;20277;-53
2022/09/04 14:17:25;;;;;;;4.93;3.40;;;25.80;99.90;;;;;;5092384;28;20216;-52
2022/09/04 14:20:03;;;;;;;7.10;3.75;;;25.90;99.90;;;;;;5091597;28;20199;-52
2022/09/04 14:22:45;;;;;;;5.57;3.60;;;25.90;99.90;;;;;;5072671;28;20318;-53